Airfield :
LOGIN :

Register | Disclaimer

   EN    FR    IT 

 










Legend :    VFR   Marginal VFR   IFR   Intensive IFR   Very Intensive IFR
Visi :
Ceiling :
>= 8 km
>= 3000ft
5 to 8 km
1000 to 3000 ft
1500m to 5 km
500 to 1000 ft
800 to 1500m
200 to 500 ft
< 800m
< 200 ft
Symbols :   Thunderstorms  Fog  Heavy snow  Heavy precipitations  Wind > 20 kt
SIGMETs :     Misc.  Thunderstorms  Icing  Turbulence  Mountain Waves  Volcanic Ashes






- Airport Elevation : 472 ft
- IATA code : GME


UMGG - Gomel

CURRENT METAR :
  • 020700Z 22005G08MPS CAVOK 04/M06 Q1010 R28/D NOSIG

EXPIRED METARs :
  • 020630Z 21005G08MPS CAVOK 03/M06 Q1010 R28/D NOSIG
  • 020600Z 22005G08MPS CAVOK 03/M06 Q1010 R28/CLRD// NOSIG
  • 020530Z 24006MPS CAVOK 02/M05 Q1010 R28/CLRD// NOSIG
  • 020500Z 23005MPS CAVOK 02/M05 Q1010 R28/CLRD// NOSIG
  • 020430Z 23005MPS CAVOK 01/M05 Q1010 R28/CLRD// NOSIG

TAF TAF UMGG
Valid from the 02 at 06:00 until the 03 at 06:00 UTC


020455Z 0206/0306 23007MPS 6000 BKN015
TEMPO 0206/0216 25009G14MPS SCT020CB
TEMPO 0221/0303 22004MPS 2000 BR BKN005
TEMPO 0303/0306 22009G14MPS



MET'MAP, your aeronautical weather chart ! - Copyright ORBIFLY December 2007 - Disclaimer

ORBIFLY MET'MAP TEAM :

Programming & Development : Alexandra Zaïnal
Concept & original design : Baudouin d'Aumeries
Assistance for programming : Marc-Olivier Méhu
Technical & hardware support : Manuel Goepfert

Contact : metmap@orbifly.com




SOURCES & CREDITS :

   NOAA